GRZ519 Details

Departure: Edmonton International Airport (CYEG)
Arrival: Denver International Airport (KDEN)
Route: OMROD TOVIS YEA BIL OPPEE MOLTN3


Current Weather Information
CYEG 191700Z 36005KT 310V050 20SM BKN017 BKN075 14/11 A2992 RMK SC5AC2 SLP146 DENSITY ALT 2800FT
KDEN 191653Z 34004KT 10SM FEW120 SCT220 32/M01 A3014 RMK AO2 SLP108 T03221011 $